sensor_id;sensor_type;location;lat;lon;timestamp;temperature;humidity
9542;DHT22;4809;48.224;8.572;2022-11-04T00:01:56;9.20;91.10
9542;DHT22;4809;48.224;8.572;2022-11-04T00:04:24;9.20;91.10
9542;DHT22;4809;48.224;8.572;2022-11-04T00:06:50;9.20;91.10
9542;DHT22;4809;48.224;8.572;2022-11-04T00:09:20;9.10;90.90
9542;DHT22;4809;48.224;8.572;2022-11-04T00:11:47;9.10;91.20
9542;DHT22;4809;48.224;8.572;2022-11-04T00:14:33;9.10;91.00
9542;DHT22;4809;48.224;8.572;2022-11-04T00:16:59;9.10;90.90
9542;DHT22;4809;48.224;8.572;2022-11-04T00:19:44;9.10;90.40
9542;DHT22;4809;48.224;8.572;2022-11-04T00:22:28;9.00;90.50
9542;DHT22;4809;48.224;8.572;2022-11-04T00:25:12;9.00;90.50
9542;DHT22;4809;48.224;8.572;2022-11-04T00:28:12;9.00;90.60
9542;DHT22;4809;48.224;8.572;2022-11-04T00:30:58;8.90;90.70
9542;DHT22;4809;48.224;8.572;2022-11-04T00:33:44;8.90;90.80
9542;DHT22;4809;48.224;8.572;2022-11-04T00:36:10;8.90;91.10
9542;DHT22;4809;48.224;8.572;2022-11-04T00:38:35;8.90;91.20
9542;DHT22;4809;48.224;8.572;2022-11-04T00:41:01;8.80;91.30
9542;DHT22;4809;48.224;8.572;2022-11-04T00:43:27;8.80;91.40
9542;DHT22;4809;48.224;8.572;2022-11-04T00:45:52;8.80;91.60
9542;DHT22;4809;48.224;8.572;2022-11-04T00:48:18;8.80;91.60
9542;DHT22;4809;48.224;8.572;2022-11-04T00:50:44;8.70;91.60
9542;DHT22;4809;48.224;8.572;2022-11-04T00:53:09;8.70;91.80
9542;DHT22;4809;48.224;8.572;2022-11-04T00:55:35;8.70;91.90
9542;DHT22;4809;48.224;8.572;2022-11-04T00:58:00;8.70;91.70
9542;DHT22;4809;48.224;8.572;2022-11-04T01:00:26;8.70;91.80
9542;DHT22;4809;48.224;8.572;2022-11-04T01:02:52;8.70;91.70
9542;DHT22;4809;48.224;8.572;2022-11-04T01:05:18;8.70;91.70
9542;DHT22;4809;48.224;8.572;2022-11-04T01:07:43;8.70;91.70
9542;DHT22;4809;48.224;8.572;2022-11-04T01:10:09;8.70;91.90
9542;DHT22;4809;48.224;8.572;2022-11-04T01:12:35;8.70;91.90
9542;DHT22;4809;48.224;8.572;2022-11-04T01:15:01;8.70;92.00
9542;DHT22;4809;48.224;8.572;2022-11-04T01:17:26;8.70;92.00
9542;DHT22;4809;48.224;8.572;2022-11-04T01:19:52;8.70;92.10
9542;DHT22;4809;48.224;8.572;2022-11-04T01:22:18;8.70;92.30
9542;DHT22;4809;48.224;8.572;2022-11-04T01:24:43;8.70;92.20
9542;DHT22;4809;48.224;8.572;2022-11-04T01:27:09;8.70;92.00
9542;DHT22;4809;48.224;8.572;2022-11-04T01:29:35;8.70;92.10
9542;DHT22;4809;48.224;8.572;2022-11-04T01:32:00;8.60;92.00
9542;DHT22;4809;48.224;8.572;2022-11-04T01:34:26;8.60;92.30
9542;DHT22;4809;48.224;8.572;2022-11-04T01:36:51;8.50;92.40
9542;DHT22;4809;48.224;8.572;2022-11-04T01:39:17;8.50;92.50
9542;DHT22;4809;48.224;8.572;2022-11-04T01:41:43;8.50;92.50
9542;DHT22;4809;48.224;8.572;2022-11-04T01:50:00;8.50;92.90
9542;DHT22;4809;48.224;8.572;2022-11-04T01:52:33;8.50;93.00
9542;DHT22;4809;48.224;8.572;2022-11-04T01:55:04;8.40;93.20
9542;DHT22;4809;48.224;8.572;2022-11-04T01:57:35;8.40;92.80
9542;DHT22;4809;48.224;8.572;2022-11-04T02:00:05;8.30;92.10
9542;DHT22;4809;48.224;8.572;2022-11-04T02:02:32;8.20;92.20
9542;DHT22;4809;48.224;8.572;2022-11-04T02:04:59;8.10;92.30
9542;DHT22;4809;48.224;8.572;2022-11-04T02:07:24;8.00;92.50
9542;DHT22;4809;48.224;8.572;2022-11-04T02:09:50;7.90;92.70
9542;DHT22;4809;48.224;8.572;2022-11-04T02:12:16;7.90;92.70
9542;DHT22;4809;48.224;8.572;2022-11-04T02:15:01;7.90;93.00
9542;DHT22;4809;48.224;8.572;2022-11-04T02:20:36;7.90;93.00
9542;DHT22;4809;48.224;8.572;2022-11-04T02:25:56;7.90;92.70
9542;DHT22;4809;48.224;8.572;2022-11-04T02:36:16;7.80;92.60
9542;DHT22;4809;48.224;8.572;2022-11-04T02:38:55;7.70;92.40
9542;DHT22;4809;48.224;8.572;2022-11-04T02:41:41;7.70;92.20
9542;DHT22;4809;48.224;8.572;2022-11-04T02:47:04;7.60;91.80
9542;DHT22;4809;48.224;8.572;2022-11-04T02:49:44;7.60;91.80
9542;DHT22;4809;48.224;8.572;2022-11-04T02:52:15;7.50;91.90
9542;DHT22;4809;48.224;8.572;2022-11-04T02:54:58;7.50;92.00
9542;DHT22;4809;48.224;8.572;2022-11-04T02:57:28;7.40;92.20
9542;DHT22;4809;48.224;8.572;2022-11-04T03:00:09;7.40;92.20
9542;DHT22;4809;48.224;8.572;2022-11-04T03:02:54;7.40;92.20
9542;DHT22;4809;48.224;8.572;2022-11-04T03:05:25;7.30;92.20
9542;DHT22;4809;48.224;8.572;2022-11-04T03:07:55;7.30;92.00
9542;DHT22;4809;48.224;8.572;2022-11-04T03:10:55;7.30;92.10
9542;DHT22;4809;48.224;8.572;2022-11-04T03:13:53;7.30;91.40
9542;DHT22;4809;48.224;8.572;2022-11-04T03:16:51;7.40;91.60
9542;DHT22;4809;48.224;8.572;2022-11-04T03:19:25;7.30;91.60
9542;DHT22;4809;48.224;8.572;2022-11-04T03:22:14;7.30;91.70
9542;DHT22;4809;48.224;8.572;2022-11-04T03:24:42;7.40;91.80
9542;DHT22;4809;48.224;8.572;2022-11-04T03:27:17;7.40;91.60
9542;DHT22;4809;48.224;8.572;2022-11-04T03:32:21;7.40;91.50
9542;DHT22;4809;48.224;8.572;2022-11-04T03:34:49;7.40;91.50
9542;DHT22;4809;48.224;8.572;2022-11-04T03:37:15;7.30;91.70
9542;DHT22;4809;48.224;8.572;2022-11-04T03:39:41;7.30;91.80
9542;DHT22;4809;48.224;8.572;2022-11-04T03:42:09;7.30;91.90
9542;DHT22;4809;48.224;8.572;2022-11-04T03:44:55;7.20;91.80
9542;DHT22;4809;48.224;8.572;2022-11-04T03:47:26;7.20;91.90
9542;DHT22;4809;48.224;8.572;2022-11-04T03:50:46;7.10;91.90
9542;DHT22;4809;48.224;8.572;2022-11-04T03:52:46;7.10;91.90
9542;DHT22;4809;48.224;8.572;2022-11-04T03:55:12;7.10;91.80
9542;DHT22;4809;48.224;8.572;2022-11-04T04:00:16;7.10;92.00
9542;DHT22;4809;48.224;8.572;2022-11-04T04:03:08;7.20;91.70
9542;DHT22;4809;48.224;8.572;2022-11-04T04:05:40;7.20;91.50
9542;DHT22;4809;48.224;8.572;2022-11-04T04:08:26;7.10;91.40
9542;DHT22;4809;48.224;8.572;2022-11-04T04:11:16;7.00;91.60
9542;DHT22;4809;48.224;8.572;2022-11-04T04:14:11;7.00;91.60
9542;DHT22;4809;48.224;8.572;2022-11-04T04:19:34;6.90;91.70
9542;DHT22;4809;48.224;8.572;2022-11-04T04:22:17;6.80;92.00
9542;DHT22;4809;48.224;8.572;2022-11-04T04:24:47;6.90;91.80
9542;DHT22;4809;48.224;8.572;2022-11-04T04:27:33;6.90;91.70
9542;DHT22;4809;48.224;8.572;2022-11-04T04:30:04;6.90;91.90
9542;DHT22;4809;48.224;8.572;2022-11-04T04:32:35;6.90;91.80
9542;DHT22;4809;48.224;8.572;2022-11-04T04:35:01;6.80;91.60
9542;DHT22;4809;48.224;8.572;2022-11-04T04:37:46;6.90;91.50
9542;DHT22;4809;48.224;8.572;2022-11-04T04:40:15;6.90;91.70
9542;DHT22;4809;48.224;8.572;2022-11-04T04:43:02;6.90;91.40
9542;DHT22;4809;48.224;8.572;2022-11-04T04:45:54;6.90;91.60
9542;DHT22;4809;48.224;8.572;2022-11-04T04:48:20;6.90;91.40
9542;DHT22;4809;48.224;8.572;2022-11-04T04:50:49;6.90;91.40
9542;DHT22;4809;48.224;8.572;2022-11-04T04:53:16;6.90;91.40
9542;DHT22;4809;48.224;8.572;2022-11-04T04:55:41;7.00;91.40
9542;DHT22;4809;48.224;8.572;2022-11-04T04:58:07;6.90;91.20
9542;DHT22;4809;48.224;8.572;2022-11-04T05:00:33;6.90;91.40
9542;DHT22;4809;48.224;8.572;2022-11-04T05:02:59;7.00;91.30
9542;DHT22;4809;48.224;8.572;2022-11-04T05:05:25;6.90;91.30
9542;DHT22;4809;48.224;8.572;2022-11-04T05:07:50;6.90;91.30
9542;DHT22;4809;48.224;8.572;2022-11-04T05:10:17;6.90;91.60
9542;DHT22;4809;48.224;8.572;2022-11-04T05:12:43;6.90;91.60
9542;DHT22;4809;48.224;8.572;2022-11-04T05:15:28;6.80;91.80
9542;DHT22;4809;48.224;8.572;2022-11-04T05:17:58;6.80;92.00
9542;DHT22;4809;48.224;8.572;2022-11-04T05:20:24;6.80;92.00
9542;DHT22;4809;48.224;8.572;2022-11-04T05:22:50;6.80;92.10
9542;DHT22;4809;48.224;8.572;2022-11-04T05:25:16;6.80;91.90
9542;DHT22;4809;48.224;8.572;2022-11-04T05:27:42;6.80;91.70
9542;DHT22;4809;48.224;8.572;2022-11-04T05:30:08;6.80;92.00
9542;DHT22;4809;48.224;8.572;2022-11-04T05:32:33;6.80;92.00
9542;DHT22;4809;48.224;8.572;2022-11-04T05:34:59;6.80;91.90
9542;DHT22;4809;48.224;8.572;2022-11-04T05:37:25;6.80;91.90
9542;DHT22;4809;48.224;8.572;2022-11-04T05:39:51;6.80;91.80
9542;DHT22;4809;48.224;8.572;2022-11-04T05:42:17;6.70;91.80
9542;DHT22;4809;48.224;8.572;2022-11-04T05:44:43;6.70;91.80
9542;DHT22;4809;48.224;8.572;2022-11-04T05:47:08;6.70;91.70
9542;DHT22;4809;48.224;8.572;2022-11-04T05:49:34;6.80;91.20
9542;DHT22;4809;48.224;8.572;2022-11-04T05:52:00;6.80;91.10
9542;DHT22;4809;48.224;8.572;2022-11-04T05:54:25;6.70;91.10
9542;DHT22;4809;48.224;8.572;2022-11-04T05:56:52;6.70;90.90
9542;DHT22;4809;48.224;8.572;2022-11-04T05:59:17;6.50;91.40
9542;DHT22;4809;48.224;8.572;2022-11-04T06:01:44;6.40;91.50
9542;DHT22;4809;48.224;8.572;2022-11-04T06:04:15;6.30;91.70
9542;DHT22;4809;48.224;8.572;2022-11-04T06:06:41;6.20;91.70
9542;DHT22;4809;48.224;8.572;2022-11-04T06:09:06;6.20;92.10
9542;DHT22;4809;48.224;8.572;2022-11-04T06:11:33;6.20;92.30
9542;DHT22;4809;48.224;8.572;2022-11-04T06:13:59;6.20;92.00
9542;DHT22;4809;48.224;8.572;2022-11-04T06:16:25;6.10;92.30
9542;DHT22;4809;48.224;8.572;2022-11-04T06:18:51;6.10;92.10
9542;DHT22;4809;48.224;8.572;2022-11-04T06:23:44;6.10;91.90
9542;DHT22;4809;48.224;8.572;2022-11-04T06:26:11;6.10;92.00
9542;DHT22;4809;48.224;8.572;2022-11-04T06:28:37;6.10;91.70
9542;DHT22;4809;48.224;8.572;2022-11-04T06:31:05;6.10;91.90
9542;DHT22;4809;48.224;8.572;2022-11-04T06:33:31;6.10;91.90
9542;DHT22;4809;48.224;8.572;2022-11-04T06:35:58;6.00;92.00
9542;DHT22;4809;48.224;8.572;2022-11-04T06:38:25;6.10;91.60
9542;DHT22;4809;48.224;8.572;2022-11-04T06:40:51;6.10;91.70
9542;DHT22;4809;48.224;8.572;2022-11-04T06:43:17;6.10;91.60
9542;DHT22;4809;48.224;8.572;2022-11-04T06:45:43;6.10;91.60
9542;DHT22;4809;48.224;8.572;2022-11-04T06:48:08;6.10;91.50
9542;DHT22;4809;48.224;8.572;2022-11-04T06:50:34;6.00;91.80
9542;DHT22;4809;48.224;8.572;2022-11-04T06:53:00;6.00;91.80
9542;DHT22;4809;48.224;8.572;2022-11-04T06:55:25;6.10;91.70
9542;DHT22;4809;48.224;8.572;2022-11-04T06:57:51;6.20;91.80
9542;DHT22;4809;48.224;8.572;2022-11-04T07:00:17;6.30;91.70
9542;DHT22;4809;48.224;8.572;2022-11-04T07:02:43;6.40;91.40
9542;DHT22;4809;48.224;8.572;2022-11-04T07:05:08;6.40;91.20
9542;DHT22;4809;48.224;8.572;2022-11-04T07:07:35;6.50;91.10
9542;DHT22;4809;48.224;8.572;2022-11-04T07:10:00;6.50;91.20
9542;DHT22;4809;48.224;8.572;2022-11-04T07:12:26;6.60;91.20
9542;DHT22;4809;48.224;8.572;2022-11-04T07:14:52;6.60;91.30
9542;DHT22;4809;48.224;8.572;2022-11-04T07:17:18;6.60;91.20
9542;DHT22;4809;48.224;8.572;2022-11-04T07:19:43;6.70;91.10
9542;DHT22;4809;48.224;8.572;2022-11-04T07:22:09;6.70;91.10
9542;DHT22;4809;48.224;8.572;2022-11-04T07:24:35;6.80;91.20
9542;DHT22;4809;48.224;8.572;2022-11-04T07:27:00;6.80;91.00
9542;DHT22;4809;48.224;8.572;2022-11-04T07:29:26;6.80;91.10
9542;DHT22;4809;48.224;8.572;2022-11-04T07:31:53;6.90;90.80
9542;DHT22;4809;48.224;8.572;2022-11-04T07:34:18;7.00;90.80
9542;DHT22;4809;48.224;8.572;2022-11-04T07:36:44;7.00;90.80
9542;DHT22;4809;48.224;8.572;2022-11-04T07:39:10;7.00;90.50
9542;DHT22;4809;48.224;8.572;2022-11-04T07:41:35;7.00;90.60
9542;DHT22;4809;48.224;8.572;2022-11-04T07:44:01;7.10;90.70
9542;DHT22;4809;48.224;8.572;2022-11-04T07:46:30;7.20;90.60
9542;DHT22;4809;48.224;8.572;2022-11-04T07:48:57;7.30;90.50
9542;DHT22;4809;48.224;8.572;2022-11-04T07:51:23;7.30;90.30
9542;DHT22;4809;48.224;8.572;2022-11-04T07:53:49;7.40;90.30
9542;DHT22;4809;48.224;8.572;2022-11-04T07:56:15;7.50;90.20
9542;DHT22;4809;48.224;8.572;2022-11-04T07:58:41;7.70;90.30
9542;DHT22;4809;48.224;8.572;2022-11-04T08:01:13;7.80;90.00
9542;DHT22;4809;48.224;8.572;2022-11-04T08:03:39;7.90;87.60
9542;DHT22;4809;48.224;8.572;2022-11-04T08:06:07;8.10;87.50
9542;DHT22;4809;48.224;8.572;2022-11-04T08:08:33;8.00;88.00
9542;DHT22;4809;48.224;8.572;2022-11-04T08:11:05;8.10;88.20
9542;DHT22;4809;48.224;8.572;2022-11-04T08:13:34;8.20;88.20
9542;DHT22;4809;48.224;8.572;2022-11-04T08:16:26;8.30;87.20
9542;DHT22;4809;48.224;8.572;2022-11-04T08:18:52;8.30;87.50
9542;DHT22;4809;48.224;8.572;2022-11-04T08:21:19;8.40;87.90
9542;DHT22;4809;48.224;8.572;2022-11-04T08:23:45;8.50;88.10
9542;DHT22;4809;48.224;8.572;2022-11-04T08:26:15;8.60;87.20
9542;DHT22;4809;48.224;8.572;2022-11-04T08:28:41;8.70;86.40
9542;DHT22;4809;48.224;8.572;2022-11-04T08:31:10;8.80;86.30
9542;DHT22;4809;48.224;8.572;2022-11-04T08:33:38;8.90;85.50
9542;DHT22;4809;48.224;8.572;2022-11-04T08:36:13;9.00;84.60
9542;DHT22;4809;48.224;8.572;2022-11-04T08:38:40;9.10;84.10
9542;DHT22;4809;48.224;8.572;2022-11-04T08:41:07;9.20;83.40
9542;DHT22;4809;48.224;8.572;2022-11-04T08:43:33;9.40;82.70
9542;DHT22;4809;48.224;8.572;2022-11-04T08:46:00;9.50;83.10
9542;DHT22;4809;48.224;8.572;2022-11-04T08:48:26;9.70;82.60
9542;DHT22;4809;48.224;8.572;2022-11-04T08:50:54;9.80;82.10
9542;DHT22;4809;48.224;8.572;2022-11-04T08:53:21;9.80;80.90
9542;DHT22;4809;48.224;8.572;2022-11-04T08:55:47;9.80;81.20
9542;DHT22;4809;48.224;8.572;2022-11-04T08:58:13;9.90;82.00
9542;DHT22;4809;48.224;8.572;2022-11-04T09:00:39;9.80;81.70
9542;DHT22;4809;48.224;8.572;2022-11-04T09:03:05;9.70;83.30
9542;DHT22;4809;48.224;8.572;2022-11-04T09:05:31;9.60;83.50
9542;DHT22;4809;48.224;8.572;2022-11-04T09:07:58;9.60;83.90
9542;DHT22;4809;48.224;8.572;2022-11-04T09:10:25;9.50;83.10
9542;DHT22;4809;48.224;8.572;2022-11-04T09:12:51;9.40;83.10
9542;DHT22;4809;48.224;8.572;2022-11-04T09:15:17;9.30;84.50
9542;DHT22;4809;48.224;8.572;2022-11-04T09:17:42;9.30;84.10
9542;DHT22;4809;48.224;8.572;2022-11-04T09:20:09;9.30;83.60
9542;DHT22;4809;48.224;8.572;2022-11-04T09:22:35;9.30;83.80
9542;DHT22;4809;48.224;8.572;2022-11-04T09:25:00;9.40;84.20
9542;DHT22;4809;48.224;8.572;2022-11-04T09:27:26;9.50;83.50
9542;DHT22;4809;48.224;8.572;2022-11-04T09:29:52;9.50;82.80
9542;DHT22;4809;48.224;8.572;2022-11-04T09:32:17;9.60;82.80
9542;DHT22;4809;48.224;8.572;2022-11-04T09:34:43;9.60;82.20
9542;DHT22;4809;48.224;8.572;2022-11-04T09:37:09;9.60;81.40
9542;DHT22;4809;48.224;8.572;2022-11-04T09:39:34;9.60;81.20
9542;DHT22;4809;48.224;8.572;2022-11-04T09:44:52;9.90;82.60
9542;DHT22;4809;48.224;8.572;2022-11-04T09:47:20;10.00;80.30
9542;DHT22;4809;48.224;8.572;2022-11-04T09:49:52;10.20;78.80
9542;DHT22;4809;48.224;8.572;2022-11-04T09:52:28;10.40;78.00
9542;DHT22;4809;48.224;8.572;2022-11-04T09:55:20;10.60;76.70
9542;DHT22;4809;48.224;8.572;2022-11-04T09:57:56;11.10;76.70
9542;DHT22;4809;48.224;8.572;2022-11-04T10:00:24;11.50;74.20
9542;DHT22;4809;48.224;8.572;2022-11-04T10:06:00;11.80;70.30
9542;DHT22;4809;48.224;8.572;2022-11-04T10:14:38;11.20;75.80
9542;DHT22;4809;48.224;8.572;2022-11-04T10:20:30;10.80;73.20
9542;DHT22;4809;48.224;8.572;2022-11-04T10:25:49;10.50;74.70
9542;DHT22;4809;48.224;8.572;2022-11-04T10:28:22;10.60;75.80
9542;DHT22;4809;48.224;8.572;2022-11-04T10:30:50;10.90;76.60
9542;DHT22;4809;48.224;8.572;2022-11-04T10:33:36;11.10;73.60
9542;DHT22;4809;48.224;8.572;2022-11-04T10:36:08;11.40;72.80
9542;DHT22;4809;48.224;8.572;2022-11-04T10:38:38;11.40;71.50
9542;DHT22;4809;48.224;8.572;2022-11-04T10:41:32;11.30;71.70
9542;DHT22;4809;48.224;8.572;2022-11-04T10:44:20;11.20;72.20
9542;DHT22;4809;48.224;8.572;2022-11-04T10:52:23;11.30;71.10
9542;DHT22;4809;48.224;8.572;2022-11-04T10:54:49;11.40;71.00
9542;DHT22;4809;48.224;8.572;2022-11-04T10:57:23;11.50;71.10
9542;DHT22;4809;48.224;8.572;2022-11-04T11:02:43;11.70;69.50
9542;DHT22;4809;48.224;8.572;2022-11-04T11:07:45;12.30;68.90
9542;DHT22;4809;48.224;8.572;2022-11-04T11:10:24;12.60;68.50
9542;DHT22;4809;48.224;8.572;2022-11-04T11:17:54;11.80;67.90
9542;DHT22;4809;48.224;8.572;2022-11-04T11:20:23;11.50;69.80
9542;DHT22;4809;48.224;8.572;2022-11-04T11:22:50;11.40;71.70
9542;DHT22;4809;48.224;8.572;2022-11-04T11:25:26;11.50;71.40
9542;DHT22;4809;48.224;8.572;2022-11-04T11:27:59;11.50;71.00
9542;DHT22;4809;48.224;8.572;2022-11-04T11:30:31;11.50;70.20
9542;DHT22;4809;48.224;8.572;2022-11-04T11:33:05;11.50;71.00
9542;DHT22;4809;48.224;8.572;2022-11-04T11:35:41;11.60;71.90
9542;DHT22;4809;48.224;8.572;2022-11-04T11:38:29;11.50;71.40
9542;DHT22;4809;48.224;8.572;2022-11-04T11:41:24;11.50;71.40
9542;DHT22;4809;48.224;8.572;2022-11-04T11:43:59;11.60;71.00
9542;DHT22;4809;48.224;8.572;2022-11-04T11:46:33;11.50;70.20
9542;DHT22;4809;48.224;8.572;2022-11-04T11:49:02;11.40;70.80
9542;DHT22;4809;48.224;8.572;2022-11-04T11:51:36;11.30;72.60
9542;DHT22;4809;48.224;8.572;2022-11-04T11:54:29;11.20;73.50
9542;DHT22;4809;48.224;8.572;2022-11-04T11:57:01;11.30;73.50
9542;DHT22;4809;48.224;8.572;2022-11-04T12:04:39;11.10;75.00
9542;DHT22;4809;48.224;8.572;2022-11-04T12:07:20;11.00;74.10
9542;DHT22;4809;48.224;8.572;2022-11-04T12:21:25;11.10;74.70
9542;DHT22;4809;48.224;8.572;2022-11-04T12:31:53;11.20;75.10
9542;DHT22;4809;48.224;8.572;2022-11-04T12:47:41;10.90;71.60
9542;DHT22;4809;48.224;8.572;2022-11-04T12:53:26;12.10;69.60
9542;DHT22;4809;48.224;8.572;2022-11-04T13:01:27;18.00;53.00
9542;DHT22;4809;48.224;8.572;2022-11-04T13:04:09;19.20;48.80
9542;DHT22;4809;48.224;8.572;2022-11-04T13:06:41;19.60;46.50
9542;DHT22;4809;48.224;8.572;2022-11-04T13:09:23;18.70;47.90
9542;DHT22;4809;48.224;8.572;2022-11-04T13:11:53;19.20;47.10
9542;DHT22;4809;48.224;8.572;2022-11-04T13:14:34;19.30;46.10
9542;DHT22;4809;48.224;8.572;2022-11-04T13:17:05;19.00;46.50
9542;DHT22;4809;48.224;8.572;2022-11-04T13:19:53;18.80;46.70
9542;DHT22;4809;48.224;8.572;2022-11-04T13:22:31;17.70;48.00
9542;DHT22;4809;48.224;8.572;2022-11-04T13:25:39;16.50;51.00
9542;DHT22;4809;48.224;8.572;2022-11-04T13:28:14;16.00;53.30
9542;DHT22;4809;48.224;8.572;2022-11-04T13:33:46;17.00;51.30
9542;DHT22;4809;48.224;8.572;2022-11-04T13:38:58;15.80;54.20
9542;DHT22;4809;48.224;8.572;2022-11-04T13:44:26;14.50;56.40
9542;DHT22;4809;48.224;8.572;2022-11-04T13:46:54;13.70;59.40
9542;DHT22;4809;48.224;8.572;2022-11-04T13:49:25;13.10;61.20
9542;DHT22;4809;48.224;8.572;2022-11-04T13:57:18;12.20;65.20
9542;DHT22;4809;48.224;8.572;2022-11-04T14:02:41;12.30;66.40
9542;DHT22;4809;48.224;8.572;2022-11-04T14:16:05;12.50;64.40
9542;DHT22;4809;48.224;8.572;2022-11-04T14:18:35;12.40;65.40
9542;DHT22;4809;48.224;8.572;2022-11-04T14:21:14;12.40;65.50
9542;DHT22;4809;48.224;8.572;2022-11-04T14:23:42;12.20;65.60
9542;DHT22;4809;48.224;8.572;2022-11-04T14:26:18;11.90;67.60
9542;DHT22;4809;48.224;8.572;2022-11-04T14:28:46;11.70;69.50
9542;DHT22;4809;48.224;8.572;2022-11-04T14:31:39;11.40;71.00
9542;DHT22;4809;48.224;8.572;2022-11-04T14:34:06;11.20;72.60
9542;DHT22;4809;48.224;8.572;2022-11-04T14:36:38;11.00;73.60
9542;DHT22;4809;48.224;8.572;2022-11-04T14:44:18;10.80;74.80
9542;DHT22;4809;48.224;8.572;2022-11-04T14:46:48;10.70;75.70
9542;DHT22;4809;48.224;8.572;2022-11-04T14:52:19;10.60;76.70
9542;DHT22;4809;48.224;8.572;2022-11-04T14:54:45;10.60;77.10
9542;DHT22;4809;48.224;8.572;2022-11-04T14:57:13;10.50;77.40
9542;DHT22;4809;48.224;8.572;2022-11-04T14:59:40;10.50;77.60
9542;DHT22;4809;48.224;8.572;2022-11-04T15:02:17;10.40;77.60
9542;DHT22;4809;48.224;8.572;2022-11-04T15:04:52;10.30;77.20
9542;DHT22;4809;48.224;8.572;2022-11-04T15:07:33;10.30;78.10
9542;DHT22;4809;48.224;8.572;2022-11-04T15:10:00;10.30;78.30
9542;DHT22;4809;48.224;8.572;2022-11-04T15:12:27;10.40;78.40
9542;DHT22;4809;48.224;8.572;2022-11-04T15:18:07;10.40;78.20
9542;DHT22;4809;48.224;8.572;2022-11-04T15:20:38;10.40;77.70
9542;DHT22;4809;48.224;8.572;2022-11-04T15:23:08;10.30;77.80
9542;DHT22;4809;48.224;8.572;2022-11-04T15:25:42;10.30;76.90
9542;DHT22;4809;48.224;8.572;2022-11-04T15:28:16;10.20;76.70
9542;DHT22;4809;48.224;8.572;2022-11-04T15:31:00;10.30;77.10
9542;DHT22;4809;48.224;8.572;2022-11-04T15:33:26;10.30;76.70
9542;DHT22;4809;48.224;8.572;2022-11-04T15:35:54;10.30;76.70
9542;DHT22;4809;48.224;8.572;2022-11-04T15:38:21;10.20;76.90
9542;DHT22;4809;48.224;8.572;2022-11-04T15:40:47;10.10;78.00
9542;DHT22;4809;48.224;8.572;2022-11-04T15:43:14;10.00;78.50
9542;DHT22;4809;48.224;8.572;2022-11-04T15:45:49;10.00;78.10
9542;DHT22;4809;48.224;8.572;2022-11-04T15:48:31;9.90;79.60
9542;DHT22;4809;48.224;8.572;2022-11-04T15:51:20;9.80;80.00
9542;DHT22;4809;48.224;8.572;2022-11-04T15:53:54;9.70;79.70
9542;DHT22;4809;48.224;8.572;2022-11-04T15:56:28;9.60;80.10
9542;DHT22;4809;48.224;8.572;2022-11-04T15:58:55;9.50;80.20
9542;DHT22;4809;48.224;8.572;2022-11-04T16:01:22;9.40;80.70
9542;DHT22;4809;48.224;8.572;2022-11-04T16:03:58;9.20;80.80
9542;DHT22;4809;48.224;8.572;2022-11-04T16:06:45;9.20;81.00
9542;DHT22;4809;48.224;8.572;2022-11-04T16:09:26;9.00;81.40
9542;DHT22;4809;48.224;8.572;2022-11-04T16:12:05;8.90;81.80
9542;DHT22;4809;48.224;8.572;2022-11-04T16:14:31;8.80;82.30
9542;DHT22;4809;48.224;8.572;2022-11-04T16:16:57;8.70;82.60
9542;DHT22;4809;48.224;8.572;2022-11-04T16:19:25;8.70;83.00
9542;DHT22;4809;48.224;8.572;2022-11-04T16:21:59;8.60;83.90
9542;DHT22;4809;48.224;8.572;2022-11-04T16:24:29;8.60;84.80
9542;DHT22;4809;48.224;8.572;2022-11-04T16:26:56;8.50;85.40
9542;DHT22;4809;48.224;8.572;2022-11-04T16:29:23;8.50;85.80
9542;DHT22;4809;48.224;8.572;2022-11-04T16:32:27;8.40;86.10
9542;DHT22;4809;48.224;8.572;2022-11-04T16:35:01;8.20;86.70
9542;DHT22;4809;48.224;8.572;2022-11-04T16:37:31;8.10;87.10
9542;DHT22;4809;48.224;8.572;2022-11-04T16:39:57;8.10;87.70
9542;DHT22;4809;48.224;8.572;2022-11-04T16:42:22;8.00;88.00
9542;DHT22;4809;48.224;8.572;2022-11-04T16:44:50;8.10;88.10
9542;DHT22;4809;48.224;8.572;2022-11-04T16:47:17;8.00;88.30
9542;DHT22;4809;48.224;8.572;2022-11-04T16:49:44;8.10;88.90
9542;DHT22;4809;48.224;8.572;2022-11-04T16:52:14;8.00;88.80
9542;DHT22;4809;48.224;8.572;2022-11-04T16:54:45;8.10;88.80
9542;DHT22;4809;48.224;8.572;2022-11-04T16:57:12;8.10;88.90
9542;DHT22;4809;48.224;8.572;2022-11-04T16:59:38;8.00;88.60
9542;DHT22;4809;48.224;8.572;2022-11-04T17:02:24;8.10;88.60
9542;DHT22;4809;48.224;8.572;2022-11-04T17:04:51;8.10;88.90
9542;DHT22;4809;48.224;8.572;2022-11-04T17:07:16;8.10;88.80
9542;DHT22;4809;48.224;8.572;2022-11-04T17:09:42;8.10;89.00
9542;DHT22;4809;48.224;8.572;2022-11-04T17:12:08;8.10;88.90
9542;DHT22;4809;48.224;8.572;2022-11-04T17:14:34;8.10;89.10
9542;DHT22;4809;48.224;8.572;2022-11-04T17:17:00;8.10;88.90
9542;DHT22;4809;48.224;8.572;2022-11-04T17:19:26;8.10;88.90
9542;DHT22;4809;48.224;8.572;2022-11-04T17:21:52;8.00;89.10
9542;DHT22;4809;48.224;8.572;2022-11-04T17:24:18;8.00;89.30
9542;DHT22;4809;48.224;8.572;2022-11-04T17:26:44;8.00;89.40
9542;DHT22;4809;48.224;8.572;2022-11-04T17:29:09;8.00;89.80
9542;DHT22;4809;48.224;8.572;2022-11-04T17:31:35;7.90;90.00
9542;DHT22;4809;48.224;8.572;2022-11-04T17:34:01;7.90;90.10
9542;DHT22;4809;48.224;8.572;2022-11-04T17:36:27;7.90;90.20
9542;DHT22;4809;48.224;8.572;2022-11-04T17:38:54;7.90;90.30
9542;DHT22;4809;48.224;8.572;2022-11-04T17:41:20;7.90;89.90
9542;DHT22;4809;48.224;8.572;2022-11-04T17:44:04;7.90;90.10
9542;DHT22;4809;48.224;8.572;2022-11-04T17:46:32;7.90;90.20
9542;DHT22;4809;48.224;8.572;2022-11-04T17:49:02;7.90;90.30
9542;DHT22;4809;48.224;8.572;2022-11-04T17:51:29;7.90;90.20
9542;DHT22;4809;48.224;8.572;2022-11-04T17:53:55;7.90;90.20
9542;DHT22;4809;48.224;8.572;2022-11-04T17:56:22;7.80;90.30
9542;DHT22;4809;48.224;8.572;2022-11-04T17:58:48;7.80;90.50
9542;DHT22;4809;48.224;8.572;2022-11-04T18:01:16;7.80;90.60
9542;DHT22;4809;48.224;8.572;2022-11-04T18:03:42;7.80;90.80
9542;DHT22;4809;48.224;8.572;2022-11-04T18:06:11;7.70;90.90
9542;DHT22;4809;48.224;8.572;2022-11-04T18:08:40;7.70;90.80
9542;DHT22;4809;48.224;8.572;2022-11-04T18:11:08;7.80;90.80
9542;DHT22;4809;48.224;8.572;2022-11-04T18:13:35;7.70;91.10
9542;DHT22;4809;48.224;8.572;2022-11-04T18:16:14;7.60;91.00
9542;DHT22;4809;48.224;8.572;2022-11-04T18:18:40;7.60;91.20
9542;DHT22;4809;48.224;8.572;2022-11-04T18:21:07;7.60;91.30
9542;DHT22;4809;48.224;8.572;2022-11-04T18:23:33;7.60;91.40
9542;DHT22;4809;48.224;8.572;2022-11-04T18:25:59;7.60;91.50
9542;DHT22;4809;48.224;8.572;2022-11-04T18:28:24;7.60;91.30
9542;DHT22;4809;48.224;8.572;2022-11-04T18:30:51;7.70;91.20
9542;DHT22;4809;48.224;8.572;2022-11-04T18:33:16;7.70;91.10
9542;DHT22;4809;48.224;8.572;2022-11-04T18:35:42;7.70;90.90
9542;DHT22;4809;48.224;8.572;2022-11-04T18:38:08;7.80;91.00
9542;DHT22;4809;48.224;8.572;2022-11-04T18:40:33;7.70;90.70
9542;DHT22;4809;48.224;8.572;2022-11-04T18:43:00;7.70;90.60
9542;DHT22;4809;48.224;8.572;2022-11-04T18:45:29;7.70;90.80
9542;DHT22;4809;48.224;8.572;2022-11-04T18:47:55;7.70;90.80
9542;DHT22;4809;48.224;8.572;2022-11-04T18:50:20;7.70;90.90
9542;DHT22;4809;48.224;8.572;2022-11-04T18:52:46;7.70;91.00
9542;DHT22;4809;48.224;8.572;2022-11-04T18:55:11;7.70;91.10
9542;DHT22;4809;48.224;8.572;2022-11-04T18:57:37;7.60;91.10
9542;DHT22;4809;48.224;8.572;2022-11-04T19:00:03;7.60;91.20
9542;DHT22;4809;48.224;8.572;2022-11-04T19:02:29;7.60;91.20
9542;DHT22;4809;48.224;8.572;2022-11-04T19:04:56;7.60;91.20
9542;DHT22;4809;48.224;8.572;2022-11-04T19:07:22;7.50;91.30
9542;DHT22;4809;48.224;8.572;2022-11-04T19:09:48;7.50;91.30